Time;durP1;ratioP1;P1;durP2;ratioP2;P2;SDS_P1;SDS_P2;PMS_P1;PMS_P2;Temp;Humidity;BMP_temperature;BMP_pressure;BME280_temperature;BME280_humidity;BME280_pressure;Samples;Min_cycle;Max_cycle;Signal;HPM_P1;HPM_P2
2023/07/29 00:01:20;;;;;;;2.40;1.33;;;18.70;99.90;;;19.52;100.00;97501.59;5019283;28;21126;-83
2023/07/29 00:03:50;;;;;;;12.00;1.93;;;18.70;99.90;;;19.51;100.00;97503.44;5017358;28;20461;-84
2023/07/29 00:06:21;;;;;;;2.07;1.70;;;18.70;99.90;;;19.51;100.00;97495.50;5017947;28;20458;-84
2023/07/29 00:08:51;;;;;;;12.33;1.50;;;18.70;99.90;;;19.51;100.00;97492.84;5019448;28;20833;-84
2023/07/29 00:11:23;;;;;;;3.27;1.43;;;18.70;99.90;;;19.52;100.00;97501.59;5019005;28;20520;-84
2023/07/29 00:13:53;;;;;;;9.13;1.77;;;18.70;99.90;;;19.50;100.00;97498.41;5020466;28;20470;-85
2023/07/29 00:16:22;;;;;;;4.33;1.30;;;18.80;99.90;;;19.51;100.00;97495.50;5019795;28;20458;-86
2023/07/29 00:18:54;;;;;;;6.57;2.00;;;18.70;99.90;;;19.53;100.00;97503.19;5022193;28;20563;-84
2023/07/29 00:21:24;;;;;;;2.03;1.50;;;18.70;99.90;;;19.54;100.00;97491.53;5019207;28;20988;-84
2023/07/29 00:23:57;;;;;;;2.40;1.30;;;18.70;99.90;;;19.54;100.00;97492.31;5018661;28;20471;-84
2023/07/29 00:26:28;;;;;;;2.20;1.23;;;18.70;99.90;;;19.52;100.00;97486.47;5020197;28;20478;-84
2023/07/29 00:28:59;;;;;;;2.03;1.43;;;18.70;99.90;;;19.51;100.00;97484.88;5022134;28;20553;-85
2023/07/29 00:31:29;;;;;;;3.73;1.30;;;18.70;99.90;;;19.51;100.00;97476.91;5021896;28;20490;-85
2023/07/29 00:33:59;;;;;;;5.83;1.30;;;18.70;99.90;;;19.52;100.00;97473.22;5020788;28;20820;-85
2023/07/29 00:36:28;;;;;;;2.17;1.97;;;18.70;99.90;;;19.52;100.00;97480.38;5022469;28;20484;-85
2023/07/29 00:38:59;;;;;;;5.43;1.20;;;18.70;99.90;;;19.50;100.00;97483.31;5020460;28;20490;-84
2023/07/29 00:41:30;;;;;;;1.27;1.17;;;18.70;99.90;;;19.50;100.00;97482.50;5020825;28;20475;-84
2023/07/29 00:44:00;;;;;;;6.60;1.70;;;18.70;99.90;;;19.49;100.00;97476.41;5022033;28;20984;-84
2023/07/29 00:46:31;;;;;;;3.10;1.60;;;18.70;99.90;;;19.49;100.00;97475.59;5020465;28;20495;-85
2023/07/29 00:49:02;;;;;;;2.30;1.40;;;18.70;99.90;;;19.50;100.00;97475.34;5021868;28;20462;-85
2023/07/29 00:51:31;;;;;;;1.87;1.60;;;18.70;99.90;;;19.50;100.00;97482.50;5021434;28;20473;-85
2023/07/29 00:54:02;;;;;;;1.63;1.23;;;18.70;99.90;;;19.48;100.00;97474.78;5020212;28;20465;-85
2023/07/29 00:56:33;;;;;;;1.63;1.20;;;18.70;99.90;;;19.46;100.00;97468.97;5018805;28;20467;-85
2023/07/29 00:59:05;;;;;;;1.50;1.40;;;18.70;99.90;;;19.43;100.00;97472.13;5017163;28;20512;-84
2023/07/29 01:01:34;;;;;;;1.80;1.40;;;18.70;99.90;;;19.44;100.00;97472.91;5018230;28;20481;-84
2023/07/29 01:04:03;;;;;;;1.83;1.60;;;18.70;99.90;;;19.43;100.00;97474.78;5021721;28;20480;-85
2023/07/29 01:06:47;;;;;;;6.83;1.83;;;18.70;99.90;;;19.43;100.00;97469.47;5019292;28;20545;-85
2023/07/29 01:09:31;;;;;;;8.87;1.63;;;18.70;99.90;;;19.45;100.00;97475.31;5020896;28;20466;-85
2023/07/29 01:12:16;;;;;;;2.60;1.70;;;18.70;99.90;;;19.45;100.00;97467.34;5018496;28;20463;-85
2023/07/29 01:15:00;;;;;;;2.83;1.47;;;18.70;99.90;;;19.45;100.00;97472.66;5021092;28;20463;-85
2023/07/29 01:17:36;;;;;;;2.47;2.07;;;18.70;99.90;;;19.43;100.00;97480.09;5019885;28;20501;-84
2023/07/29 01:20:13;;;;;;;2.33;1.53;;;18.70;99.90;;;19.44;100.00;97468.41;5020203;28;21056;-85
2023/07/29 01:22:45;;;;;;;2.90;1.50;;;18.70;99.90;;;19.47;100.00;97473.19;5020119;28;20465;-85
2023/07/29 01:25:16;;;;;;;7.60;1.70;;;18.70;99.90;;;19.47;100.00;97464.44;5020118;28;20467;-84
2023/07/29 01:27:48;;;;;;;6.87;2.20;;;18.70;99.90;;;19.49;100.00;97465.78;5021014;28;20454;-85
2023/07/29 01:30:19;;;;;;;3.50;1.50;;;18.60;99.90;;;19.51;100.00;97468.97;5023315;28;20497;-85
2023/07/29 01:32:56;;;;;;;9.70;1.80;;;18.60;99.90;;;19.49;100.00;97465.78;5022890;28;20454;-85
2023/07/29 01:35:40;;;;;;;1.67;1.50;;;18.70;99.90;;;19.46;100.00;97466.31;5021683;28;20458;-85
2023/07/29 01:38:19;;;;;;;5.10;1.60;;;18.70;99.90;;;19.48;100.00;97468.69;5021831;28;20458;-85
2023/07/29 01:40:53;;;;;;;2.17;1.83;;;18.70;99.90;;;19.47;100.00;97462.56;5021356;28;20462;-85
2023/07/29 01:43:25;;;;;;;6.33;1.70;;;18.70;99.90;;;19.48;100.00;97474.78;5020808;28;20543;-84
2023/07/29 01:45:55;;;;;;;5.50;1.73;;;18.70;99.90;;;19.44;100.00;97452.47;5022848;28;20551;-84
2023/07/29 01:48:27;;;;;;;2.67;1.80;;;18.70;99.90;;;19.44;100.00;97449.03;5025669;28;20887;-85
2023/07/29 01:50:56;;;;;;;4.13;2.00;;;18.70;99.90;;;19.44;100.00;97444.53;5024994;28;20466;-85
2023/07/29 01:53:27;;;;;;;4.53;1.60;;;18.70;99.90;;;19.42;100.00;97451.97;5024484;28;20462;-85
2023/07/29 01:55:58;;;;;;;2.23;1.60;;;18.60;99.90;;;19.41;100.00;97447.69;5023380;28;20470;-85
2023/07/29 01:58:28;;;;;;;3.80;2.07;;;18.60;99.90;;;19.39;100.00;97447.13;5021763;28;20463;-85
2023/07/29 02:00:59;;;;;;;3.03;1.90;;;18.60;99.90;;;19.38;100.00;97437.56;5020914;28;21051;-85
2023/07/29 02:03:29;;;;;;;14.50;1.90;;;18.60;99.90;;;19.38;100.00;97431.47;5020278;28;20553;-85
2023/07/29 02:05:58;;;;;;;2.10;1.80;;;18.60;99.90;;;19.38;100.00;97437.56;5023543;28;20464;-84
2023/07/29 02:08:29;;;;;;;1.97;1.70;;;18.60;99.90;;;19.37;100.00;97424.56;5023847;28;20458;-84
2023/07/29 02:10:59;;;;;;;2.07;1.87;;;18.60;99.90;;;19.37;100.00;97429.88;5022648;28;20458;-85
2023/07/29 02:13:29;;;;;;;3.60;1.70;;;18.60;99.90;;;19.38;100.00;97418.22;5021433;28;20482;-84
2023/07/29 02:16:00;;;;;;;3.93;1.83;;;18.60;99.90;;;19.37;100.00;97409.47;5019346;28;20471;-84
2023/07/29 02:18:30;;;;;;;2.40;1.67;;;18.60;99.90;;;19.36;100.00;97407.06;5024181;28;21577;-84
2023/07/29 02:21:01;;;;;;;8.53;1.77;;;18.60;99.90;;;19.36;100.00;97417.69;5022541;28;20466;-85
2023/07/29 02:23:33;;;;;;;2.13;1.60;;;18.50;99.90;;;19.35;100.00;97424.84;5022488;28;20490;-84
2023/07/29 02:26:04;;;;;;;3.10;2.07;;;18.50;99.90;;;19.32;100.00;97430.66;5023608;28;20485;-85
2023/07/29 02:28:34;;;;;;;5.80;1.87;;;18.50;99.90;;;19.30;100.00;97430.09;5023081;28;20528;-85
2023/07/29 02:31:17;;;;;;;4.67;1.80;;;18.50;99.90;;;19.28;100.00;97420.81;5025806;28;20470;-85
2023/07/29 02:33:49;;;;;;;3.10;1.80;;;18.50;99.90;;;19.28;100.00;97429.56;5026178;28;20498;-85
2023/07/29 02:36:19;;;;;;;2.30;2.00;;;18.50;99.90;;;19.29;100.00;97423.22;5024946;28;21032;-85
2023/07/29 02:38:48;;;;;;;6.60;2.00;;;18.50;99.90;;;19.29;100.00;97423.22;5025222;28;20466;-84
2023/07/29 02:41:20;;;;;;;2.30;1.93;;;18.40;99.90;;;19.30;100.00;97424.03;5023795;28;20836;-85
2023/07/29 02:43:51;;;;;;;2.87;1.90;;;18.40;99.90;;;19.29;100.00;97425.88;5022811;28;20457;-85
2023/07/29 02:46:21;;;;;;;10.23;1.63;;;18.40;99.90;;;19.28;100.00;97421.63;5024749;28;20457;-85
2023/07/29 02:48:52;;;;;;;3.53;1.70;;;18.40;99.90;;;19.23;100.00;97418.16;5021675;28;20809;-85
2023/07/29 02:51:23;;;;;;;14.80;8.80;;;18.40;99.90;;;19.17;100.00;97412.00;5030363;28;20454;-92
2023/07/29 02:53:52;;;;;;;5.03;2.10;;;18.40;99.90;;;19.14;100.00;97411.72;5023021;28;20470;-84
2023/07/29 02:56:23;;;;;;;4.30;1.80;;;18.40;99.90;;;19.13;100.00;97408.28;5020427;28;20553;-85
2023/07/29 02:58:53;;;;;;;3.93;2.30;;;18.40;99.90;;;19.11;100.00;97415.69;5021548;28;20905;-85
2023/07/29 03:01:26;;;;;;;4.00;1.63;;;18.30;99.90;;;19.07;100.00;97419.91;5022458;28;20875;-85
2023/07/29 03:03:55;;;;;;;12.80;4.27;;;18.30;99.90;;;19.06;100.00;97413.00;5029723;28;20508;-84
2023/07/29 03:06:25;;;;;;;2.40;1.93;;;18.20;99.90;;;19.05;100.00;97406.13;5021588;28;20537;-85
2023/07/29 03:08:57;;;;;;;11.53;1.97;;;18.20;99.90;;;19.03;100.00;97408.22;5018969;28;20497;-84
2023/07/29 03:11:29;;;;;;;3.73;1.97;;;18.20;99.90;;;19.01;100.00;97410.34;5022612;28;20936;-84
2023/07/29 03:14:00;;;;;;;4.80;2.20;;;18.10;99.90;;;18.98;100.00;97408.22;5020078;28;20466;-86
2023/07/29 03:16:31;;;;;;;185.60;121.23;;;18.20;99.90;;;18.97;100.00;97410.06;5033203;28;21021;-84
2023/07/29 03:19:02;;;;;;;7.00;4.43;;;18.10;99.90;;;18.97;100.00;97414.56;5034634;28;20466;-84
2023/07/29 03:21:33;;;;;;;3.20;2.20;;;18.10;99.90;;;18.93;100.00;97397.56;5021601;28;20475;-84
2023/07/29 03:24:03;;;;;;;5.27;2.00;;;18.10;99.90;;;18.91;100.00;97395.19;5022162;28;20463;-84
2023/07/29 03:26:34;;;;;;;2.20;2.00;;;18.10;99.90;;;18.92;100.00;97395.97;5023866;28;20900;-84
2023/07/29 03:29:05;;;;;;;6.93;2.20;;;18.10;99.90;;;18.92;100.00;97393.31;5023509;28;20513;-84
2023/07/29 03:31:35;;;;;;;9.03;3.10;;;18.10;99.90;;;18.89;100.00;97388.53;5022147;28;20470;-84
2023/07/29 03:34:05;;;;;;;5.43;2.23;;;18.10;99.90;;;18.87;100.00;97386.16;5021735;28;20473;-84
2023/07/29 03:36:35;;;;;;;4.83;2.33;;;18.10;99.90;;;18.86;100.00;97389.03;5022875;28;20524;-84
2023/07/29 03:39:05;;;;;;;4.20;2.13;;;18.00;99.90;;;18.86;100.00;97394.34;5021319;28;20705;-83
2023/07/29 03:41:37;;;;;;;7.80;2.37;;;18.00;99.90;;;18.85;100.00;97387.44;5020163;28;20555;-83
2023/07/29 03:44:07;;;;;;;2.33;2.13;;;18.00;99.90;;;18.84;100.00;97384.00;5023113;28;20986;-83
2023/07/29 03:46:37;;;;;;;3.80;2.13;;;18.00;99.90;;;18.83;100.00;97384.25;5024671;28;20459;-84
2023/07/29 03:49:09;;;;;;;5.10;2.60;;;18.00;99.90;;;18.79;100.00;97391.91;5020666;28;21008;-84
2023/07/29 03:51:39;;;;;;;7.60;2.87;;;18.00;99.90;;;18.76;100.00;97378.38;5027023;28;20497;-85
2023/07/29 03:54:10;;;;;;;2.40;2.20;;;18.00;99.90;;;18.76;100.00;97375.72;5022106;28;20953;-85
2023/07/29 03:56:42;;;;;;;5.87;2.33;;;18.00;99.90;;;18.76;100.00;97368.59;5021919;28;20545;-85
2023/07/29 03:59:13;;;;;;;3.13;2.80;;;18.00;99.90;;;18.73;100.00;97379.69;5028515;28;21026;-85
2023/07/29 04:01:43;;;;;;;10.73;2.60;;;17.90;99.90;;;18.71;100.00;97367.78;5022023;28;20504;-84
2023/07/29 04:04:13;;;;;;;3.87;2.23;;;17.90;99.90;;;18.72;100.00;97374.63;5022078;28;20458;-83
2023/07/29 04:06:43;;;;;;;5.30;2.60;;;17.90;99.90;;;18.71;100.00;97371.19;5019568;28;20839;-83
2023/07/29 04:09:12;;;;;;;8.17;2.03;;;17.80;99.90;;;18.69;100.00;97364.56;5021513;28;20471;-83
2023/07/29 04:11:44;;;;;;;2.93;2.57;;;17.90;99.90;;;18.68;100.00;97369.06;5022360;28;20558;-83
2023/07/29 04:14:13;;;;;;;3.20;2.47;;;17.90;99.90;;;18.70;100.00;97366.16;5022245;28;20478;-84
2023/07/29 04:16:43;;;;;;;2.40;2.20;;;17.90;99.90;;;18.71;100.00;97373.06;5022010;28;20565;-83
2023/07/29 04:19:11;;;;;;;3.03;2.50;;;17.90;99.90;;;18.70;100.00;97368.81;5021733;28;20512;-84
2023/07/29 04:21:43;;;;;;;2.50;2.30;;;17.90;99.90;;;18.72;100.00;97364.03;5025581;28;20603;-91
2023/07/29 04:24:13;;;;;;;13.03;7.13;;;17.80;99.90;;;18.68;100.00;97373.56;5024086;28;20513;-84
2023/07/29 04:26:46;;;;;;;6.10;2.63;;;17.90;99.90;;;18.69;100.00;97377.81;5036430;28;20469;-85
2023/07/29 04:29:15;;;;;;;12.53;2.77;;;17.90;99.90;;;18.68;100.00;97373.56;5028693;28;21035;-91
2023/07/29 04:31:46;;;;;;;9.03;2.57;;;17.90;99.90;;;18.69;100.00;97380.44;5037452;28;21173;-86
2023/07/29 04:34:16;;;;;;;2.63;2.43;;;17.90;99.90;;;18.70;100.00;97371.47;5020488;28;20474;-83
2023/07/29 04:36:45;;;;;;;2.77;2.40;;;17.90;99.90;;;18.71;100.00;97373.84;5022297;28;20498;-83
2023/07/29 04:39:15;;;;;;;3.00;2.20;;;17.90;99.90;;;18.68;100.00;97377.00;5022927;28;20462;-82
2023/07/29 04:41:46;;;;;;;2.90;2.70;;;17.90;99.90;;;18.69;100.00;97391.84;5025856;28;20555;-83
2023/07/29 04:44:16;;;;;;;3.83;2.00;;;17.90;99.90;;;18.70;100.00;97390.00;5024174;28;20459;-83
2023/07/29 04:46:47;;;;;;;3.93;2.30;;;17.90;99.90;;;18.70;100.00;97385.50;5025033;28;20555;-82
2023/07/29 04:49:18;;;;;;;2.57;1.80;;;17.80;99.90;;;18.72;100.00;97411.72;5023979;28;20458;-82
2023/07/29 04:51:47;;;;;;;16.33;2.67;;;17.90;99.90;;;18.74;100.00;97425.53;5026214;28;20458;-83
2023/07/29 04:54:20;;;;;;;7.50;2.23;;;18.10;99.90;;;18.78;100.00;97413.38;5024193;28;20544;-82
2023/07/29 04:56:51;;;;;;;2.77;2.10;;;18.10;99.90;;;18.85;100.00;97422.69;5024242;28;20525;-83
2023/07/29 04:59:20;;;;;;;4.53;2.67;;;18.10;99.90;;;18.88;100.00;97421.41;5025873;28;20860;-83
2023/07/29 05:01:50;;;;;;;5.47;2.43;;;18.10;99.90;;;18.89;100.00;97412.38;5023801;28;20563;-82
2023/07/29 05:04:24;;;;;;;6.93;3.10;;;18.10;99.90;;;18.92;100.00;97402.06;5023228;28;21044;-83
2023/07/29 05:06:55;;;;;;;8.60;3.00;;;18.20;99.90;;;18.95;100.00;97409.50;5022666;28;20528;-82
2023/07/29 05:09:25;;;;;;;6.90;3.10;;;18.20;99.90;;;18.97;100.00;97406.59;5024988;28;20450;-82
2023/07/29 05:11:59;;;;;;;8.03;3.30;;;18.20;99.90;;;18.99;100.00;97412.44;5024350;28;20480;-82
2023/07/29 05:14:29;;;;;;;6.97;3.40;;;18.20;99.90;;;18.98;100.00;97401.06;5024443;28;20465;-82
2023/07/29 05:17:00;;;;;;;5.90;3.13;;;18.20;99.90;;;19.01;100.00;97399.75;5023723;28;21327;-83
2023/07/29 05:19:29;;;;;;;3.50;3.17;;;18.20;99.90;;;19.00;100.00;97406.88;5025232;28;20533;-82
2023/07/29 05:22:00;;;;;;;4.20;3.10;;;18.20;99.90;;;19.01;100.00;97402.41;5024872;28;20500;-82
2023/07/29 05:24:31;;;;;;;2.70;2.17;;;18.20;99.90;;;19.03;100.00;97402.91;5026877;28;20485;-83
2023/07/29 05:27:03;;;;;;;8.20;3.00;;;18.20;99.90;;;19.02;100.00;97396.03;5027836;28;20898;-83
2023/07/29 05:29:34;;;;;;;4.93;2.80;;;18.20;99.90;;;19.02;100.00;97393.41;5029102;28;20898;-82
2023/07/29 05:32:05;;;;;;;5.93;3.37;;;18.20;99.90;;;19.04;100.00;97383.31;5026979;28;20524;-83
2023/07/29 05:34:36;;;;;;;5.77;3.00;;;18.20;99.90;;;19.06;100.00;97370.59;5027407;28;20501;-82
2023/07/29 05:37:07;;;;;;;9.47;2.43;;;18.20;99.90;;;19.07;100.00;97377.50;5026607;28;20908;-82
2023/07/29 05:39:38;;;;;;;2.70;2.17;;;18.20;99.90;;;19.02;100.00;97388.88;5027118;28;20455;-83
2023/07/29 05:42:10;;;;;;;4.60;1.70;;;18.30;99.90;;;19.00;100.00;97390.19;5023932;28;20493;-83
2023/07/29 05:44:40;;;;;;;4.13;1.77;;;18.30;99.90;;;19.00;100.00;97388.34;5027658;28;20549;-82
2023/07/29 05:47:11;;;;;;;3.47;2.33;;;18.20;99.90;;;18.99;100.00;97383.28;5027163;28;20466;-83
2023/07/29 05:49:41;;;;;;;3.60;1.97;;;18.30;99.90;;;19.00;100.00;97382.25;5026409;28;20466;-82
2023/07/29 05:52:12;;;;;;;3.10;1.80;;;18.30;99.90;;;19.01;100.00;97370.59;5025833;28;20475;-83
2023/07/29 05:54:42;;;;;;;7.03;1.80;;;18.30;99.90;;;19.00;100.00;97345.94;5026745;28;20468;-83
2023/07/29 05:57:13;;;;;;;4.83;1.50;;;18.20;99.90;;;18.93;100.00;97408.16;5026158;28;20499;-83
2023/07/29 05:59:44;;;;;;;1.50;1.20;;;18.20;99.90;;;18.83;100.00;97435.41;5028191;28;20568;-83
2023/07/29 06:02:14;;;;;;;2.33;1.30;;;18.10;99.90;;;18.78;100.00;97427.41;5028336;28;20513;-82
2023/07/29 06:04:44;;;;;;;2.43;1.50;;;18.00;99.90;;;18.82;100.00;97412.59;5027354;28;21133;-82
2023/07/29 06:07:13;;;;;;;7.53;1.47;;;18.10;99.90;;;18.84;100.00;97418.47;5026379;28;20470;-83
2023/07/29 06:09:42;;;;;;;2.30;1.47;;;18.10;99.90;;;18.82;100.00;97412.59;5029173;28;20466;-83
2023/07/29 06:12:13;;;;;;;4.10;1.50;;;18.10;99.90;;;18.79;100.00;97413.09;5024822;28;21257;-82
2023/07/29 06:14:42;;;;;;;2.60;1.27;;;18.20;99.90;;;18.76;100.00;97431.38;5025687;28;20473;-83
2023/07/29 06:17:12;;;;;;;4.20;1.40;;;18.10;99.90;;;18.75;100.00;97438.50;5026156;28;20491;-82
2023/07/29 06:19:42;;;;;;;5.07;1.40;;;18.10;99.90;;;18.79;100.00;97444.09;5025590;28;21017;-82
2023/07/29 06:22:12;;;;;;;2.20;1.53;;;18.10;99.90;;;18.80;100.00;97454.47;5026836;28;20496;-82
2023/07/29 06:24:41;;;;;;;3.20;1.60;;;18.10;99.90;;;18.77;100.00;97454.97;5026186;28;20470;-83
2023/07/29 06:27:13;;;;;;;1.60;1.30;;;18.10;99.90;;;18.74;100.00;97460.78;5025371;28;20458;-83
2023/07/29 06:29:43;;;;;;;2.00;1.23;;;18.10;99.90;;;18.77;100.00;97467.41;5027116;28;20542;-83
2023/07/29 06:32:13;;;;;;;1.60;1.30;;;18.10;99.90;;;18.73;100.00;97471.63;5026970;28;20856;-82
2023/07/29 06:34:44;;;;;;;2.00;1.37;;;18.10;99.90;;;18.72;100.00;97462.88;5025503;28;20458;-82
2023/07/29 06:37:14;;;;;;;3.80;1.23;;;18.10;99.90;;;18.77;100.00;97480.66;5024401;28;20987;-82
2023/07/29 06:39:43;;;;;;;1.17;1.07;;;18.10;99.90;;;18.76;100.00;97466.59;5024731;28;20999;-83
2023/07/29 06:42:14;;;;;;;4.40;1.40;;;18.20;99.90;;;18.80;100.00;97480.16;5025084;28;21066;-83
2023/07/29 06:44:45;;;;;;;13.00;3.30;;;18.10;99.90;;;18.85;100.00;97469.56;5027535;28;20466;-83
2023/07/29 06:47:14;;;;;;;5.13;1.20;;;18.10;99.90;;;18.90;100.00;97466.97;5023670;28;20975;-82
2023/07/29 06:49:47;;;;;;;3.57;1.40;;;18.20;99.90;;;18.95;100.00;97469.69;5026222;28;20491;-83
2023/07/29 06:52:17;;;;;;;2.50;1.40;;;18.20;99.90;;;18.98;100.00;97471.81;5025462;28;20463;-82
2023/07/29 06:54:45;;;;;;;1.50;1.40;;;18.30;99.90;;;19.00;100.00;97472.34;5026957;28;20828;-82
2023/07/29 06:57:17;;;;;;;1.10;1.00;;;18.30;99.90;;;19.03;100.00;97471.84;5022859;28;20465;-82
2023/07/29 06:59:47;;;;;;;1.70;1.20;;;18.30;99.90;;;19.02;100.00;97480.84;5028031;28;20482;-82
2023/07/29 07:02:17;;;;;;;1.30;1.07;;;18.30;99.90;;;19.01;100.00;97489.84;5026028;28;20506;-83
2023/07/29 07:04:49;;;;;;;1.17;1.07;;;18.40;99.90;;;18.97;100.00;97473.66;5024705;28;20457;-83
2023/07/29 07:07:20;;;;;;;7.87;1.17;;;18.30;99.90;;;19.05;100.00;97480.34;5024284;28;20893;-82
2023/07/29 07:09:50;;;;;;;1.20;1.10;;;18.30;99.90;;;19.10;100.00;97483.81;5022557;28;20937;-82
2023/07/29 07:12:22;;;;;;;5.50;1.20;;;18.40;99.90;;;19.09;100.00;97490.16;5025885;28;20474;-83
2023/07/29 07:14:53;;;;;;;3.43;1.20;;;18.40;99.90;;;19.14;100.00;97488.59;4956811;28;2001326;-83
2023/07/29 07:17:23;;;;;;;1.20;1.10;;;18.50;99.90;;;19.10;100.00;97480.38;5025742;28;20214;-82
2023/07/29 07:19:53;;;;;;;5.90;1.13;;;18.50;99.90;;;19.16;100.00;97481.22;5025166;28;20470;-82
2023/07/29 07:22:23;;;;;;;1.83;1.50;;;18.50;99.90;;;19.18;100.00;97495.00;5024989;28;20496;-82
2023/07/29 07:24:53;;;;;;;3.07;1.23;;;18.50;99.90;;;19.21;100.00;97479.38;5024866;28;20883;-82
2023/07/29 07:27:24;;;;;;;2.37;1.30;;;18.60;99.90;;;19.25;100.00;97477.81;5025657;28;20461;-83
2023/07/29 07:29:53;;;;;;;1.93;1.10;;;18.60;99.90;;;19.24;100.00;97476.22;5023242;28;20466;-82
2023/07/29 07:32:22;;;;;;;1.20;1.10;;;18.50;99.90;;;19.24;100.00;97472.75;5025208;28;20473;-82
2023/07/29 07:34:51;;;;;;;1.20;1.10;;;18.50;99.90;;;19.23;100.00;97471.97;5023052;28;20471;-82
2023/07/29 07:37:21;;;;;;;1.13;1.00;;;18.50;99.90;;;19.24;100.00;97480.72;5023856;28;20473;-82
2023/07/29 07:39:52;;;;;;;1.50;1.40;;;18.60;99.90;;;19.27;100.00;97475.69;5023803;28;20562;-83
2023/07/29 07:42:23;;;;;;;2.60;1.30;;;18.60;99.90;;;19.33;100.00;97477.31;5023272;28;20536;-84
2023/07/29 07:44:54;;;;;;;3.53;1.67;;;18.70;99.90;;;19.38;100.00;97474.72;5022865;28;20489;-82
2023/07/29 07:47:25;;;;;;;1.87;1.40;;;18.80;99.90;;;19.40;100.00;97477.88;5025924;28;20465;-83
2023/07/29 07:49:55;;;;;;;2.30;1.40;;;18.80;99.90;;;19.44;100.00;97468.41;5025898;28;20490;-82
2023/07/29 07:52:26;;;;;;;2.27;1.33;;;18.90;99.90;;;19.52;100.00;97469.75;5024565;28;20560;-82
2023/07/29 07:54:56;;;;;;;1.40;1.13;;;18.90;99.90;;;19.55;100.00;97469.25;5028706;28;20458;-82
2023/07/29 07:57:28;;;;;;;1.60;1.20;;;18.90;99.90;;;19.63;100.00;97465.31;5026620;28;20632;-82
2023/07/29 07:59:58;;;;;;;2.00;1.40;;;18.90;99.90;;;19.67;100.00;97458.44;5025496;28;21499;-82
2023/07/29 08:02:29;;;;;;;1.47;1.30;;;19.00;99.90;;;19.71;100.00;97462.16;5024351;28;21012;-82
2023/07/29 08:04:58;;;;;;;2.50;1.50;;;19.10;99.90;;;19.76;100.00;97472.78;5025555;28;20469;-82
2023/07/29 08:07:28;;;;;;;1.57;1.20;;;19.10;99.90;;;19.80;100.00;97471.22;5025197;28;20466;-83
2023/07/29 08:09:58;;;;;;;1.40;1.10;;;19.10;99.90;;;19.84;100.00;97480.25;5025141;28;20489;-83
2023/07/29 08:12:30;;;;;;;1.70;1.40;;;19.20;99.90;;;19.88;100.00;97468.88;5026259;28;20831;-82
2023/07/29 08:15:00;;;;;;;1.23;1.07;;;19.20;99.90;;;19.96;100.00;97470.19;5025994;28;20482;-82
2023/07/29 08:17:30;;;;;;;1.17;1.07;;;19.30;99.90;;;19.96;100.00;97471.00;5025246;28;20543;-83
2023/07/29 08:20:01;;;;;;;2.40;1.57;;;19.30;99.90;;;19.98;100.00;97476.06;5023984;28;20474;-82
2023/07/29 08:22:31;;;;;;;1.87;1.40;;;19.30;99.90;;;20.04;100.00;97477.66;5025625;28;20498;-83
2023/07/29 08:25:01;;;;;;;1.43;1.10;;;19.40;99.90;;;20.12;100.00;97479.81;5023162;28;20498;-81
2023/07/29 08:27:35;;;;;;;1.47;1.20;;;19.40;99.90;;;20.18;100.00;97470.81;5024012;28;20873;-82
2023/07/29 08:30:07;;;;;;;1.40;1.23;;;19.40;99.90;;;20.27;100.00;97468.44;5024168;28;20466;-82
2023/07/29 08:32:38;;;;;;;1.50;1.40;;;19.60;99.90;;;20.28;100.00;97473.50;5022549;28;20550;-82
2023/07/29 08:35:09;;;;;;;1.30;1.20;;;19.60;99.90;;;20.28;100.00;97494.75;5023499;28;20473;-82
2023/07/29 08:37:39;;;;;;;2.53;1.30;;;19.60;99.90;;;20.36;100.00;97482.81;5023178;28;20466;-82
2023/07/29 08:40:14;;;;;;;1.40;1.30;;;19.60;99.90;;;20.35;100.00;97476.72;5021862;28;20968;-82
2023/07/29 08:42:50;;;;;;;1.40;1.20;;;19.80;99.90;;;20.40;100.00;97473.25;5022267;28;21015;-83
2023/07/29 08:45:21;;;;;;;1.60;1.40;;;19.80;99.90;;;20.41;100.00;97477.53;5024023;28;20465;-83
2023/07/29 08:47:58;;;;;;;1.80;1.40;;;19.80;99.90;;;20.50;100.00;97481.25;5024763;28;20460;-83
2023/07/29 08:50:31;;;;;;;3.53;1.30;;;19.90;99.90;;;20.56;100.00;97472.22;5024818;28;20461;-82
2023/07/29 08:53:04;;;;;;;1.40;1.30;;;19.80;99.90;;;20.64;100.00;97476.22;5023431;28;20466;-83
2023/07/29 08:55:34;;;;;;;2.00;1.50;;;19.90;99.90;;;20.72;100.00;97478.34;5021518;28;20454;-83
2023/07/29 08:58:07;;;;;;;3.63;1.37;;;20.00;99.90;;;20.74;100.00;97471.69;5022083;28;20486;-83
2023/07/29 09:00:39;;;;;;;2.00;1.57;;;20.10;99.90;;;20.78;100.00;97471.97;5022206;28;20521;-82
2023/07/29 09:03:09;;;;;;;2.30;1.90;;;20.20;99.90;;;20.78;100.00;97461.31;5021218;28;21039;-82
2023/07/29 09:05:39;;;;;;;2.00;1.40;;;20.20;99.90;;;20.82;100.00;97462.41;5021115;28;20968;-83
2023/07/29 09:08:10;;;;;;;1.90;1.30;;;20.20;99.90;;;20.88;100.00;97453.34;5021732;28;21053;-82
2023/07/29 09:10:41;;;;;;;4.23;1.70;;;20.30;99.90;;;20.92;100.00;97459.72;5022137;28;20798;-82
2023/07/29 09:13:34;;;;;;;1.90;1.53;;;20.40;99.90;;;20.93;100.00;97459.44;5022478;28;20465;-83
2023/07/29 09:16:06;;;;;;;2.43;1.80;;;20.30;99.90;;;20.91;100.00;97450.94;5022633;28;20467;-82
2023/07/29 09:18:36;;;;;;;4.47;1.57;;;20.30;99.90;;;20.96;100.00;97450.16;5024017;28;20476;-83
2023/07/29 09:21:06;;;;;;;2.53;1.50;;;20.40;99.90;;;20.90;100.00;97459.19;5024071;28;20517;-83
2023/07/29 09:23:42;;;;;;;1.83;1.40;;;20.40;99.90;;;20.89;100.00;97457.59;5021804;28;21124;-83
2023/07/29 09:26:12;;;;;;;1.60;1.50;;;20.30;99.90;;;20.90;100.00;97464.50;5022032;28;20988;-82
2023/07/29 09:28:43;;;;;;;5.00;1.93;;;20.40;99.90;;;20.86;100.00;97460.81;5021332;28;20454;-83
2023/07/29 09:31:22;;;;;;;5.80;1.63;;;20.40;99.90;;;20.88;100.00;97462.13;5022282;28;20535;-83
2023/07/29 09:33:57;;;;;;;1.60;1.40;;;20.40;99.90;;;20.92;100.00;97471.16;5021754;28;20454;-83
2023/07/29 09:36:28;;;;;;;3.70;1.73;;;20.40;99.90;;;20.97;100.00;97473.81;5023477;28;20512;-83
2023/07/29 09:38:59;;;;;;;3.53;1.70;;;20.40;99.90;;;21.03;100.00;97463.97;5023551;28;20899;-83
2023/07/29 09:41:31;;;;;;;1.93;1.63;;;20.40;99.90;;;21.04;100.00;97468.22;5023548;28;21037;-83
2023/07/29 09:44:05;;;;;;;1.50;1.40;;;20.40;99.90;;;21.09;100.00;97468.22;5021813;28;20504;-82
2023/07/29 09:46:38;;;;;;;1.77;1.50;;;20.60;99.90;;;21.15;100.00;97477.00;5023653;28;20458;-82
2023/07/29 09:49:10;;;;;;;1.83;1.43;;;20.60;99.90;;;21.21;100.00;97475.94;5023763;28;20461;-83
2023/07/29 09:51:40;;;;;;;1.67;1.40;;;20.50;99.90;;;21.30;100.00;97474.31;5025524;28;20570;-83
2023/07/29 09:54:13;;;;;;;1.80;1.60;;;20.60;99.90;;;21.35;100.00;97482.28;5024314;28;20461;-82
2023/07/29 09:56:44;;;;;;;3.87;1.97;;;20.70;99.90;;;21.41;100.00;97492.66;5025232;28;20474;-82
2023/07/29 09:59:21;;;;;;;1.50;1.40;;;20.80;99.90;;;21.53;100.00;97490.50;5022383;28;20996;-82
2023/07/29 10:01:53;;;;;;;1.60;1.43;;;21.00;99.90;;;21.64;100.00;97485.94;5024787;28;20463;-82
2023/07/29 10:04:23;;;;;;;2.33;1.93;;;21.20;99.90;;;21.72;100.00;97492.56;5023977;28;20617;-83
2023/07/29 10:06:55;;;;;;;1.70;1.50;;;21.20;99.90;;;21.73;100.00;97494.94;5024358;28;20525;-83
2023/07/29 10:09:26;;;;;;;1.33;1.23;;;21.20;99.90;;;21.67;100.00;97503.22;5027927;28;20672;-83
2023/07/29 10:11:56;;;;;;;3.00;1.40;;;21.10;99.90;;;21.63;100.00;97500.31;5026920;28;20469;-83
2023/07/29 10:14:32;;;;;;;1.80;1.60;;;21.00;99.90;;;21.63;100.00;97502.97;5026323;28;20913;-83
2023/07/29 10:17:05;;;;;;;1.80;1.40;;;21.00;99.90;;;21.59;100.00;97486.75;5028208;28;20823;-83
2023/07/29 10:19:38;;;;;;;3.40;1.30;;;21.00;99.90;;;21.64;100.00;97488.59;5028567;28;20465;-83
2023/07/29 10:22:08;;;;;;;3.93;1.67;;;21.10;99.90;;;21.73;100.00;97494.16;5027728;28;20829;-82
2023/07/29 10:24:46;;;;;;;1.60;1.30;;;21.20;99.90;;;21.77;100.00;97500.53;5025430;28;20489;-82
2023/07/29 10:27:22;;;;;;;1.67;1.50;;;21.30;99.90;;;21.82;100.00;97495.19;5026654;28;20849;-82
2023/07/29 10:29:57;;;;;;;1.97;1.27;;;21.30;99.90;;;21.80;100.00;97495.44;5025092;28;20845;-83